sensor_id;sensor_type;location;lat;lon;timestamp;P1;durP1;ratioP1;P2;durP2;ratioP2
44046;SDS011;29713;-33.888;151.150;2023-02-12T00:01:10;16.15;;;5.53;;
44046;SDS011;29713;-33.888;151.150;2023-02-12T00:03:38;16.27;;;5.25;;
44046;SDS011;29713;-33.888;151.150;2023-02-12T00:06:06;15.05;;;4.60;;
44046;SDS011;29713;-33.888;151.150;2023-02-12T00:08:34;18.48;;;6.18;;
44046;SDS011;29713;-33.888;151.150;2023-02-12T00:11:09;18.35;;;5.55;;
44046;SDS011;29713;-33.888;151.150;2023-02-12T00:13:41;19.27;;;5.68;;
44046;SDS011;29713;-33.888;151.150;2023-02-12T00:16:10;12.35;;;4.93;;
44046;SDS011;29713;-33.888;151.150;2023-02-12T00:18:40;21.10;;;6.03;;
44046;SDS011;29713;-33.888;151.150;2023-02-12T00:21:07;19.98;;;4.68;;
44046;SDS011;29713;-33.888;151.150;2023-02-12T00:23:36;18.17;;;5.28;;
44046;SDS011;29713;-33.888;151.150;2023-02-12T00:26:06;13.43;;;4.63;;
44046;SDS011;29713;-33.888;151.150;2023-02-12T00:28:36;18.30;;;4.72;;
44046;SDS011;29713;-33.888;151.150;2023-02-12T00:31:05;17.67;;;5.80;;
44046;SDS011;29713;-33.888;151.150;2023-02-12T00:33:37;20.50;;;5.72;;
44046;SDS011;29713;-33.888;151.150;2023-02-12T00:36:05;15.80;;;5.18;;
44046;SDS011;29713;-33.888;151.150;2023-02-12T00:38:33;19.23;;;5.65;;
44046;SDS011;29713;-33.888;151.150;2023-02-12T00:41:01;10.32;;;4.22;;
44046;SDS011;29713;-33.888;151.150;2023-02-12T00:43:28;12.63;;;4.13;;
44046;SDS011;29713;-33.888;151.150;2023-02-12T00:45:55;13.43;;;4.43;;
44046;SDS011;29713;-33.888;151.150;2023-02-12T00:48:23;11.88;;;4.65;;
44046;SDS011;29713;-33.888;151.150;2023-02-12T00:50:50;14.50;;;4.68;;
44046;SDS011;29713;-33.888;151.150;2023-02-12T00:53:17;18.20;;;5.28;;
44046;SDS011;29713;-33.888;151.150;2023-02-12T00:55:45;19.40;;;5.18;;
44046;SDS011;29713;-33.888;151.150;2023-02-12T00:58:12;17.92;;;5.20;;
44046;SDS011;29713;-33.888;151.150;2023-02-12T01:00:41;14.73;;;4.57;;
44046;SDS011;29713;-33.888;151.150;2023-02-12T01:03:09;13.30;;;4.70;;
44046;SDS011;29713;-33.888;151.150;2023-02-12T01:05:37;20.90;;;5.00;;
44046;SDS011;29713;-33.888;151.150;2023-02-12T01:08:04;15.85;;;4.78;;
44046;SDS011;29713;-33.888;151.150;2023-02-12T01:10:32;14.75;;;4.72;;
44046;SDS011;29713;-33.888;151.150;2023-02-12T01:12:59;16.63;;;4.80;;
44046;SDS011;29713;-33.888;151.150;2023-02-12T01:15:26;19.60;;;4.85;;
44046;SDS011;29713;-33.888;151.150;2023-02-12T01:17:54;11.25;;;4.85;;
44046;SDS011;29713;-33.888;151.150;2023-02-12T01:20:22;17.27;;;4.95;;
44046;SDS011;29713;-33.888;151.150;2023-02-12T01:22:50;14.27;;;4.80;;
44046;SDS011;29713;-33.888;151.150;2023-02-12T01:25:18;14.57;;;4.50;;
44046;SDS011;29713;-33.888;151.150;2023-02-12T01:27:46;13.70;;;3.78;;
44046;SDS011;29713;-33.888;151.150;2023-02-12T01:30:13;12.55;;;4.30;;
44046;SDS011;29713;-33.888;151.150;2023-02-12T01:32:42;13.80;;;4.65;;
44046;SDS011;29713;-33.888;151.150;2023-02-12T01:35:09;12.70;;;4.60;;
44046;SDS011;29713;-33.888;151.150;2023-02-12T01:37:37;15.35;;;4.55;;
44046;SDS011;29713;-33.888;151.150;2023-02-12T01:40:04;17.77;;;5.38;;
44046;SDS011;29713;-33.888;151.150;2023-02-12T01:42:34;16.30;;;4.35;;
44046;SDS011;29713;-33.888;151.150;2023-02-12T01:47:42;11.43;;;4.15;;
44046;SDS011;29713;-33.888;151.150;2023-02-12T01:50:11;15.30;;;4.22;;
44046;SDS011;29713;-33.888;151.150;2023-02-12T01:52:42;19.38;;;4.68;;
44046;SDS011;29713;-33.888;151.150;2023-02-12T01:55:16;8.25;;;3.38;;
44046;SDS011;29713;-33.888;151.150;2023-02-12T01:57:46;16.92;;;4.40;;
44046;SDS011;29713;-33.888;151.150;2023-02-12T02:00:19;13.85;;;4.28;;
44046;SDS011;29713;-33.888;151.150;2023-02-12T02:02:50;11.75;;;3.58;;
44046;SDS011;29713;-33.888;151.150;2023-02-12T02:08:04;11.45;;;3.50;;
44046;SDS011;29713;-33.888;151.150;2023-02-12T02:10:31;14.63;;;4.30;;
44046;SDS011;29713;-33.888;151.150;2023-02-12T02:12:59;14.80;;;3.70;;
44046;SDS011;29713;-33.888;151.150;2023-02-12T02:15:46;10.55;;;3.72;;
44046;SDS011;29713;-33.888;151.150;2023-02-12T02:18:19;10.00;;;3.55;;
44046;SDS011;29713;-33.888;151.150;2023-02-12T02:21:18;10.75;;;3.78;;
44046;SDS011;29713;-33.888;151.150;2023-02-12T02:24:20;16.35;;;3.88;;
44046;SDS011;29713;-33.888;151.150;2023-02-12T02:35:26;12.13;;;3.63;;
44046;SDS011;29713;-33.888;151.150;2023-02-12T02:43:19;7.70;;;3.20;;
44046;SDS011;29713;-33.888;151.150;2023-02-12T02:46:16;10.90;;;3.10;;
44046;SDS011;29713;-33.888;151.150;2023-02-12T02:48:50;16.20;;;3.58;;
44046;SDS011;29713;-33.888;151.150;2023-02-12T02:51:24;10.63;;;3.90;;
44046;SDS011;29713;-33.888;151.150;2023-02-12T02:54:12;14.60;;;3.53;;
44046;SDS011;29713;-33.888;151.150;2023-02-12T02:56:44;14.98;;;3.65;;
44046;SDS011;29713;-33.888;151.150;2023-02-12T02:59:16;16.02;;;4.05;;
44046;SDS011;29713;-33.888;151.150;2023-02-12T03:01:56;11.05;;;3.60;;
44046;SDS011;29713;-33.888;151.150;2023-02-12T03:04:46;10.90;;;3.63;;
44046;SDS011;29713;-33.888;151.150;2023-02-12T03:07:23;16.67;;;4.30;;
44046;SDS011;29713;-33.888;151.150;2023-02-12T03:17:52;13.65;;;4.20;;
44046;SDS011;29713;-33.888;151.150;2023-02-12T03:20:24;15.40;;;3.92;;
44046;SDS011;29713;-33.888;151.150;2023-02-12T03:23:21;13.00;;;4.10;;
44046;SDS011;29713;-33.888;151.150;2023-02-12T03:25:54;11.73;;;3.80;;
44046;SDS011;29713;-33.888;151.150;2023-02-12T03:28:32;14.63;;;4.60;;
44046;SDS011;29713;-33.888;151.150;2023-02-12T03:39:10;10.80;;;3.63;;
44046;SDS011;29713;-33.888;151.150;2023-02-12T03:47:32;12.57;;;4.35;;
44046;SDS011;29713;-33.888;151.150;2023-02-12T03:50:08;11.60;;;4.50;;
44046;SDS011;29713;-33.888;151.150;2023-02-12T03:52:42;13.52;;;4.47;;
44046;SDS011;29713;-33.888;151.150;2023-02-12T03:55:11;15.15;;;4.53;;
44046;SDS011;29713;-33.888;151.150;2023-02-12T03:57:41;9.88;;;3.60;;
44046;SDS011;29713;-33.888;151.150;2023-02-12T04:00:21;13.13;;;4.03;;
44046;SDS011;29713;-33.888;151.150;2023-02-12T04:02:49;11.55;;;4.00;;
44046;SDS011;29713;-33.888;151.150;2023-02-12T04:05:25;13.73;;;4.70;;
44046;SDS011;29713;-33.888;151.150;2023-02-12T04:07:54;11.18;;;4.05;;
44046;SDS011;29713;-33.888;151.150;2023-02-12T04:13:15;10.18;;;4.13;;
44046;SDS011;29713;-33.888;151.150;2023-02-12T04:16:23;13.43;;;4.20;;
44046;SDS011;29713;-33.888;151.150;2023-02-12T04:18:55;13.48;;;4.13;;
44046;SDS011;29713;-33.888;151.150;2023-02-12T04:29:41;14.25;;;4.55;;
44046;SDS011;29713;-33.888;151.150;2023-02-12T04:32:17;10.88;;;4.18;;
44046;SDS011;29713;-33.888;151.150;2023-02-12T04:35:04;11.05;;;4.22;;
44046;SDS011;29713;-33.888;151.150;2023-02-12T04:37:54;18.05;;;5.18;;
44046;SDS011;29713;-33.888;151.150;2023-02-12T04:40:29;13.63;;;4.20;;
44046;SDS011;29713;-33.888;151.150;2023-02-12T04:42:57;13.30;;;4.20;;
44046;SDS011;29713;-33.888;151.150;2023-02-12T04:45:26;12.43;;;4.60;;
44046;SDS011;29713;-33.888;151.150;2023-02-12T04:47:59;15.65;;;5.03;;
44046;SDS011;29713;-33.888;151.150;2023-02-12T04:50:27;19.88;;;5.78;;
44046;SDS011;29713;-33.888;151.150;2023-02-12T04:53:07;12.07;;;4.50;;
44046;SDS011;29713;-33.888;151.150;2023-02-12T04:55:35;13.43;;;4.40;;
44046;SDS011;29713;-33.888;151.150;2023-02-12T04:58:03;11.63;;;4.25;;
44046;SDS011;29713;-33.888;151.150;2023-02-12T05:00:31;15.20;;;4.45;;
44046;SDS011;29713;-33.888;151.150;2023-02-12T05:02:59;14.70;;;4.25;;
44046;SDS011;29713;-33.888;151.150;2023-02-12T05:05:26;13.68;;;4.13;;
44046;SDS011;29713;-33.888;151.150;2023-02-12T05:07:53;15.00;;;4.20;;
44046;SDS011;29713;-33.888;151.150;2023-02-12T05:10:21;16.65;;;4.45;;
44046;SDS011;29713;-33.888;151.150;2023-02-12T05:12:50;14.93;;;4.55;;
44046;SDS011;29713;-33.888;151.150;2023-02-12T05:15:18;14.43;;;4.03;;
44046;SDS011;29713;-33.888;151.150;2023-02-12T05:17:46;13.10;;;4.60;;
44046;SDS011;29713;-33.888;151.150;2023-02-12T05:20:13;18.65;;;5.25;;
44046;SDS011;29713;-33.888;151.150;2023-02-12T05:22:40;15.73;;;4.30;;
44046;SDS011;29713;-33.888;151.150;2023-02-12T05:25:08;14.68;;;4.65;;
44046;SDS011;29713;-33.888;151.150;2023-02-12T05:27:36;14.68;;;4.32;;
44046;SDS011;29713;-33.888;151.150;2023-02-12T05:30:03;18.58;;;4.25;;
44046;SDS011;29713;-33.888;151.150;2023-02-12T05:32:31;13.75;;;3.88;;
44046;SDS011;29713;-33.888;151.150;2023-02-12T05:34:58;12.25;;;4.07;;
44046;SDS011;29713;-33.888;151.150;2023-02-12T05:37:26;13.30;;;3.88;;
44046;SDS011;29713;-33.888;151.150;2023-02-12T05:39:53;13.68;;;4.25;;
44046;SDS011;29713;-33.888;151.150;2023-02-12T05:42:20;15.10;;;4.75;;
44046;SDS011;29713;-33.888;151.150;2023-02-12T05:44:48;13.65;;;3.88;;
44046;SDS011;29713;-33.888;151.150;2023-02-12T05:47:15;14.18;;;4.00;;
44046;SDS011;29713;-33.888;151.150;2023-02-12T05:49:42;15.73;;;3.72;;
44046;SDS011;29713;-33.888;151.150;2023-02-12T05:52:09;14.68;;;4.25;;
44046;SDS011;29713;-33.888;151.150;2023-02-12T05:54:37;17.23;;;4.47;;
44046;SDS011;29713;-33.888;151.150;2023-02-12T05:57:05;18.05;;;4.18;;
44046;SDS011;29713;-33.888;151.150;2023-02-12T05:59:32;16.58;;;5.00;;
44046;SDS011;29713;-33.888;151.150;2023-02-12T06:02:00;16.70;;;5.03;;
44046;SDS011;29713;-33.888;151.150;2023-02-12T06:04:27;15.13;;;4.07;;
44046;SDS011;29713;-33.888;151.150;2023-02-12T06:06:55;17.80;;;4.57;;
44046;SDS011;29713;-33.888;151.150;2023-02-12T06:09:22;15.88;;;4.50;;
44046;SDS011;29713;-33.888;151.150;2023-02-12T06:11:50;18.27;;;4.93;;
44046;SDS011;29713;-33.888;151.150;2023-02-12T06:14:18;16.75;;;4.40;;
44046;SDS011;29713;-33.888;151.150;2023-02-12T06:16:47;18.23;;;4.65;;
44046;SDS011;29713;-33.888;151.150;2023-02-12T06:19:16;19.85;;;5.03;;
44046;SDS011;29713;-33.888;151.150;2023-02-12T06:21:44;14.98;;;4.03;;
44046;SDS011;29713;-33.888;151.150;2023-02-12T06:24:13;16.20;;;4.30;;
44046;SDS011;29713;-33.888;151.150;2023-02-12T06:26:41;18.67;;;4.93;;
44046;SDS011;29713;-33.888;151.150;2023-02-12T06:29:09;16.15;;;4.32;;
44046;SDS011;29713;-33.888;151.150;2023-02-12T06:31:37;21.50;;;5.20;;
44046;SDS011;29713;-33.888;151.150;2023-02-12T06:34:06;19.10;;;4.30;;
44046;SDS011;29713;-33.888;151.150;2023-02-12T06:36:38;19.98;;;4.60;;
44046;SDS011;29713;-33.888;151.150;2023-02-12T06:39:09;17.20;;;4.97;;
44046;SDS011;29713;-33.888;151.150;2023-02-12T06:41:41;18.25;;;5.40;;
44046;SDS011;29713;-33.888;151.150;2023-02-12T06:44:09;19.98;;;5.55;;
44046;SDS011;29713;-33.888;151.150;2023-02-12T06:46:38;19.38;;;5.10;;
44046;SDS011;29713;-33.888;151.150;2023-02-12T06:49:05;25.08;;;5.55;;
44046;SDS011;29713;-33.888;151.150;2023-02-12T06:51:33;21.42;;;5.15;;
44046;SDS011;29713;-33.888;151.150;2023-02-12T06:54:10;22.13;;;5.60;;
44046;SDS011;29713;-33.888;151.150;2023-02-12T06:56:39;24.77;;;5.40;;
44046;SDS011;29713;-33.888;151.150;2023-02-12T06:59:09;21.65;;;5.13;;
44046;SDS011;29713;-33.888;151.150;2023-02-12T07:01:39;22.23;;;4.95;;
44046;SDS011;29713;-33.888;151.150;2023-02-12T07:04:07;19.83;;;5.30;;
44046;SDS011;29713;-33.888;151.150;2023-02-12T07:06:35;15.13;;;4.40;;
44046;SDS011;29713;-33.888;151.150;2023-02-12T07:09:03;18.65;;;5.28;;
44046;SDS011;29713;-33.888;151.150;2023-02-12T07:11:32;16.02;;;4.50;;
44046;SDS011;29713;-33.888;151.150;2023-02-12T07:14:00;17.23;;;5.22;;
44046;SDS011;29713;-33.888;151.150;2023-02-12T07:16:27;21.30;;;5.10;;
44046;SDS011;29713;-33.888;151.150;2023-02-12T07:18:55;21.75;;;5.28;;
44046;SDS011;29713;-33.888;151.150;2023-02-12T07:21:22;20.50;;;4.95;;
44046;SDS011;29713;-33.888;151.150;2023-02-12T07:23:50;21.48;;;5.00;;
44046;SDS011;29713;-33.888;151.150;2023-02-12T07:26:18;19.13;;;4.82;;
44046;SDS011;29713;-33.888;151.150;2023-02-12T07:28:47;18.35;;;4.85;;
44046;SDS011;29713;-33.888;151.150;2023-02-12T07:31:17;21.02;;;5.00;;
44046;SDS011;29713;-33.888;151.150;2023-02-12T07:33:46;20.48;;;5.35;;
44046;SDS011;29713;-33.888;151.150;2023-02-12T07:36:15;19.42;;;5.50;;
44046;SDS011;29713;-33.888;151.150;2023-02-12T07:38:43;13.30;;;4.65;;
44046;SDS011;29713;-33.888;151.150;2023-02-12T07:41:12;15.52;;;4.63;;
44046;SDS011;29713;-33.888;151.150;2023-02-12T07:44:06;29.38;;;6.10;;
44046;SDS011;29713;-33.888;151.150;2023-02-12T07:46:38;19.10;;;5.03;;
44046;SDS011;29713;-33.888;151.150;2023-02-12T07:49:15;18.23;;;4.40;;
44046;SDS011;29713;-33.888;151.150;2023-02-12T07:51:43;18.45;;;4.90;;
44046;SDS011;29713;-33.888;151.150;2023-02-12T07:54:11;22.25;;;4.82;;
44046;SDS011;29713;-33.888;151.150;2023-02-12T07:56:40;12.63;;;3.88;;
44046;SDS011;29713;-33.888;151.150;2023-02-12T07:59:12;16.25;;;4.78;;
44046;SDS011;29713;-33.888;151.150;2023-02-12T08:01:43;20.05;;;4.57;;
44046;SDS011;29713;-33.888;151.150;2023-02-12T08:04:13;16.38;;;4.65;;
44046;SDS011;29713;-33.888;151.150;2023-02-12T08:06:46;20.65;;;4.60;;
44046;SDS011;29713;-33.888;151.150;2023-02-12T08:09:17;17.90;;;4.43;;
44046;SDS011;29713;-33.888;151.150;2023-02-12T08:11:45;17.75;;;4.57;;
44046;SDS011;29713;-33.888;151.150;2023-02-12T08:14:13;13.95;;;3.85;;
44046;SDS011;29713;-33.888;151.150;2023-02-12T08:16:46;19.83;;;4.22;;
44046;SDS011;29713;-33.888;151.150;2023-02-12T08:19:15;19.83;;;4.30;;
44046;SDS011;29713;-33.888;151.150;2023-02-12T08:21:42;15.52;;;3.72;;
44046;SDS011;29713;-33.888;151.150;2023-02-12T08:24:11;19.60;;;4.38;;
44046;SDS011;29713;-33.888;151.150;2023-02-12T08:26:39;17.48;;;4.60;;
44046;SDS011;29713;-33.888;151.150;2023-02-12T08:29:07;15.13;;;4.32;;
44046;SDS011;29713;-33.888;151.150;2023-02-12T08:31:46;17.88;;;4.30;;
44046;SDS011;29713;-33.888;151.150;2023-02-12T08:36:50;20.33;;;4.18;;
44046;SDS011;29713;-33.888;151.150;2023-02-12T08:39:18;17.08;;;4.50;;
44046;SDS011;29713;-33.888;151.150;2023-02-12T08:41:46;16.88;;;4.35;;
44046;SDS011;29713;-33.888;151.150;2023-02-12T08:44:16;18.75;;;4.60;;
44046;SDS011;29713;-33.888;151.150;2023-02-12T08:46:44;16.02;;;3.92;;
44046;SDS011;29713;-33.888;151.150;2023-02-12T08:49:18;14.85;;;3.90;;
44046;SDS011;29713;-33.888;151.150;2023-02-12T08:51:52;16.80;;;4.00;;
44046;SDS011;29713;-33.888;151.150;2023-02-12T08:54:22;25.08;;;4.07;;
44046;SDS011;29713;-33.888;151.150;2023-02-12T08:56:58;16.17;;;4.25;;
44046;SDS011;29713;-33.888;151.150;2023-02-12T08:59:27;11.35;;;4.32;;
44046;SDS011;29713;-33.888;151.150;2023-02-12T09:01:54;18.77;;;4.20;;
44046;SDS011;29713;-33.888;151.150;2023-02-12T09:04:23;16.48;;;4.05;;
44046;SDS011;29713;-33.888;151.150;2023-02-12T09:06:51;16.50;;;4.00;;
44046;SDS011;29713;-33.888;151.150;2023-02-12T09:09:19;15.27;;;3.75;;
44046;SDS011;29713;-33.888;151.150;2023-02-12T09:11:47;15.90;;;3.80;;
44046;SDS011;29713;-33.888;151.150;2023-02-12T09:14:16;16.90;;;4.35;;
44046;SDS011;29713;-33.888;151.150;2023-02-12T09:16:48;23.23;;;4.75;;
44046;SDS011;29713;-33.888;151.150;2023-02-12T09:19:17;22.05;;;4.40;;
44046;SDS011;29713;-33.888;151.150;2023-02-12T09:21:48;21.10;;;3.83;;
44046;SDS011;29713;-33.888;151.150;2023-02-12T09:24:20;26.38;;;4.43;;
44046;SDS011;29713;-33.888;151.150;2023-02-12T09:26:47;19.40;;;4.00;;
44046;SDS011;29713;-33.888;151.150;2023-02-12T09:29:15;18.10;;;4.60;;
44046;SDS011;29713;-33.888;151.150;2023-02-12T09:31:45;26.35;;;4.45;;
44046;SDS011;29713;-33.888;151.150;2023-02-12T09:34:13;23.00;;;4.25;;
44046;SDS011;29713;-33.888;151.150;2023-02-12T09:36:40;15.15;;;3.85;;
44046;SDS011;29713;-33.888;151.150;2023-02-12T09:39:07;20.00;;;4.28;;
44046;SDS011;29713;-33.888;151.150;2023-02-12T09:44:35;17.23;;;3.88;;
44046;SDS011;29713;-33.888;151.150;2023-02-12T09:52:53;16.48;;;4.07;;
44046;SDS011;29713;-33.888;151.150;2023-02-12T09:55:24;16.08;;;3.88;;
44046;SDS011;29713;-33.888;151.150;2023-02-12T09:57:59;14.00;;;3.50;;
44046;SDS011;29713;-33.888;151.150;2023-02-12T10:00:30;15.82;;;3.78;;
44046;SDS011;29713;-33.888;151.150;2023-02-12T10:03:01;15.05;;;3.65;;
44046;SDS011;29713;-33.888;151.150;2023-02-12T10:16:54;13.13;;;3.40;;
44046;SDS011;29713;-33.888;151.150;2023-02-12T10:25:47;25.50;;;4.75;;
44046;SDS011;29713;-33.888;151.150;2023-02-12T10:27:56;13.35;;;3.35;;
44046;SDS011;29713;-33.888;151.150;2023-02-12T10:30:34;17.20;;;4.18;;
44046;SDS011;29713;-33.888;151.150;2023-02-12T10:33:18;17.33;;;4.50;;
44046;SDS011;29713;-33.888;151.150;2023-02-12T10:39:03;19.15;;;4.53;;
44046;SDS011;29713;-33.888;151.150;2023-02-12T10:41:32;28.42;;;4.45;;
44046;SDS011;29713;-33.888;151.150;2023-02-12T10:44:08;19.45;;;4.70;;
44046;SDS011;29713;-33.888;151.150;2023-02-12T10:46:36;18.75;;;4.90;;
44046;SDS011;29713;-33.888;151.150;2023-02-12T10:49:04;23.83;;;4.95;;
44046;SDS011;29713;-33.888;151.150;2023-02-12T10:59:39;19.15;;;4.60;;
44046;SDS011;29713;-33.888;151.150;2023-02-12T11:04:50;15.40;;;4.00;;
44046;SDS011;29713;-33.888;151.150;2023-02-12T11:07:19;16.52;;;4.05;;
44046;SDS011;29713;-33.888;151.150;2023-02-12T11:09:48;19.85;;;4.40;;
44046;SDS011;29713;-33.888;151.150;2023-02-12T11:15:16;20.17;;;4.28;;
44046;SDS011;29713;-33.888;151.150;2023-02-12T11:18:05;14.10;;;4.00;;
44046;SDS011;29713;-33.888;151.150;2023-02-12T11:20:41;20.33;;;3.90;;
44046;SDS011;29713;-33.888;151.150;2023-02-12T11:26:04;20.38;;;4.05;;
44046;SDS011;29713;-33.888;151.150;2023-02-12T11:28:54;17.92;;;3.78;;
44046;SDS011;29713;-33.888;151.150;2023-02-12T11:31:24;18.00;;;4.35;;
44046;SDS011;29713;-33.888;151.150;2023-02-12T11:36:38;17.35;;;4.25;;
44046;SDS011;29713;-33.888;151.150;2023-02-12T11:39:18;19.08;;;4.45;;
44046;SDS011;29713;-33.888;151.150;2023-02-12T11:41:50;15.45;;;3.88;;
44046;SDS011;29713;-33.888;151.150;2023-02-12T11:44:29;14.75;;;4.45;;
44046;SDS011;29713;-33.888;151.150;2023-02-12T11:47:04;15.30;;;3.90;;
44046;SDS011;29713;-33.888;151.150;2023-02-12T11:49:47;13.23;;;3.40;;
44046;SDS011;29713;-33.888;151.150;2023-02-12T11:52:38;19.20;;;4.45;;
44046;SDS011;29713;-33.888;151.150;2023-02-12T11:55:17;15.15;;;4.03;;
44046;SDS011;29713;-33.888;151.150;2023-02-12T11:57:48;19.77;;;4.38;;
44046;SDS011;29713;-33.888;151.150;2023-02-12T12:00:28;13.02;;;4.15;;
44046;SDS011;29713;-33.888;151.150;2023-02-12T12:03:20;18.73;;;4.30;;
44046;SDS011;29713;-33.888;151.150;2023-02-12T12:05:53;21.80;;;4.80;;
44046;SDS011;29713;-33.888;151.150;2023-02-12T12:08:35;17.52;;;3.72;;
44046;SDS011;29713;-33.888;151.150;2023-02-12T12:14:04;20.65;;;4.38;;
44046;SDS011;29713;-33.888;151.150;2023-02-12T12:24:58;20.60;;;5.13;;
44046;SDS011;29713;-33.888;151.150;2023-02-12T12:30:50;15.15;;;4.95;;
44046;SDS011;29713;-33.888;151.150;2023-02-12T12:39:14;14.88;;;4.82;;
44046;SDS011;29713;-33.888;151.150;2023-02-12T12:42:06;16.00;;;4.38;;
44046;SDS011;29713;-33.888;151.150;2023-02-12T12:45:09;25.30;;;4.57;;
44046;SDS011;29713;-33.888;151.150;2023-02-12T12:48:01;15.93;;;4.57;;
44046;SDS011;29713;-33.888;151.150;2023-02-12T12:51:11;14.20;;;4.95;;
44046;SDS011;29713;-33.888;151.150;2023-02-12T13:13:04;17.02;;;4.60;;
44046;SDS011;29713;-33.888;151.150;2023-02-12T13:21:09;17.70;;;5.25;;
44046;SDS011;29713;-33.888;151.150;2023-02-12T13:23:46;15.73;;;4.75;;
44046;SDS011;29713;-33.888;151.150;2023-02-12T13:26:57;17.95;;;5.35;;
44046;SDS011;29713;-33.888;151.150;2023-02-12T13:34:49;17.88;;;5.38;;
44046;SDS011;29713;-33.888;151.150;2023-02-12T13:37:19;17.67;;;5.57;;
44046;SDS011;29713;-33.888;151.150;2023-02-12T13:40:14;16.08;;;5.22;;
44046;SDS011;29713;-33.888;151.150;2023-02-12T13:51:07;18.58;;;5.40;;
44046;SDS011;29713;-33.888;151.150;2023-02-12T13:58:48;16.05;;;5.13;;
44046;SDS011;29713;-33.888;151.150;2023-02-12T14:12:04;15.40;;;4.95;;
44046;SDS011;29713;-33.888;151.150;2023-02-12T14:14:40;20.92;;;4.93;;
44046;SDS011;29713;-33.888;151.150;2023-02-12T14:19:56;17.27;;;4.78;;
44046;SDS011;29713;-33.888;151.150;2023-02-12T14:27:57;14.90;;;4.55;;
44046;SDS011;29713;-33.888;151.150;2023-02-12T14:30:35;17.85;;;4.75;;
44046;SDS011;29713;-33.888;151.150;2023-02-12T14:40:45;16.52;;;5.15;;
44046;SDS011;29713;-33.888;151.150;2023-02-12T14:46:44;18.40;;;4.50;;
44046;SDS011;29713;-33.888;151.150;2023-02-12T14:48:50;21.55;;;5.22;;
44046;SDS011;29713;-33.888;151.150;2023-02-12T14:54:33;16.77;;;4.68;;
44046;SDS011;29713;-33.888;151.150;2023-02-12T14:57:20;28.40;;;5.60;;
44046;SDS011;29713;-33.888;151.150;2023-02-12T14:59:53;22.33;;;4.97;;
44046;SDS011;29713;-33.888;151.150;2023-02-12T15:02:24;17.90;;;4.68;;
44046;SDS011;29713;-33.888;151.150;2023-02-12T15:04:57;19.02;;;4.88;;
44046;SDS011;29713;-33.888;151.150;2023-02-12T15:07:57;24.67;;;5.55;;
44046;SDS011;29713;-33.888;151.150;2023-02-12T15:10:49;22.55;;;5.63;;
44046;SDS011;29713;-33.888;151.150;2023-02-12T15:26:39;20.80;;;5.22;;
44046;SDS011;29713;-33.888;151.150;2023-02-12T15:31:56;20.25;;;5.05;;
44046;SDS011;29713;-33.888;151.150;2023-02-12T15:34:29;27.73;;;5.30;;
44046;SDS011;29713;-33.888;151.150;2023-02-12T15:37:03;16.52;;;4.57;;
44046;SDS011;29713;-33.888;151.150;2023-02-12T15:39:45;19.92;;;4.85;;
44046;SDS011;29713;-33.888;151.150;2023-02-12T15:42:23;17.25;;;4.50;;
44046;SDS011;29713;-33.888;151.150;2023-02-12T15:47:45;18.77;;;5.38;;
44046;SDS011;29713;-33.888;151.150;2023-02-12T15:50:26;13.23;;;4.28;;
44046;SDS011;29713;-33.888;151.150;2023-02-12T15:52:55;10.65;;;4.10;;
44046;SDS011;29713;-33.888;151.150;2023-02-12T15:55:27;20.02;;;4.90;;
44046;SDS011;29713;-33.888;151.150;2023-02-12T15:58:00;14.75;;;4.18;;
44046;SDS011;29713;-33.888;151.150;2023-02-12T16:00:29;21.92;;;4.70;;
44046;SDS011;29713;-33.888;151.150;2023-02-12T16:06:16;17.05;;;4.82;;
44046;SDS011;29713;-33.888;151.150;2023-02-12T16:08:44;19.30;;;4.55;;
44046;SDS011;29713;-33.888;151.150;2023-02-12T16:11:18;15.38;;;4.57;;
44046;SDS011;29713;-33.888;151.150;2023-02-12T16:14:06;11.57;;;4.07;;
44046;SDS011;29713;-33.888;151.150;2023-02-12T16:19:24;18.45;;;5.00;;
44046;SDS011;29713;-33.888;151.150;2023-02-12T16:22:06;13.43;;;3.65;;
44046;SDS011;29713;-33.888;151.150;2023-02-12T16:24:42;24.40;;;4.95;;
44046;SDS011;29713;-33.888;151.150;2023-02-12T16:27:16;18.83;;;4.60;;
44046;SDS011;29713;-33.888;151.150;2023-02-12T16:29:51;16.50;;;4.22;;
44046;SDS011;29713;-33.888;151.150;2023-02-12T16:32:27;17.65;;;4.05;;
44046;SDS011;29713;-33.888;151.150;2023-02-12T16:35:04;19.48;;;4.63;;
44046;SDS011;29713;-33.888;151.150;2023-02-12T16:40:09;17.42;;;4.60;;
44046;SDS011;29713;-33.888;151.150;2023-02-12T16:48:05;20.05;;;4.22;;
44046;SDS011;29713;-33.888;151.150;2023-02-12T16:50:34;21.38;;;5.00;;
44046;SDS011;29713;-33.888;151.150;2023-02-12T16:53:05;22.95;;;5.65;;
44046;SDS011;29713;-33.888;151.150;2023-02-12T16:55:47;20.15;;;4.85;;
44046;SDS011;29713;-33.888;151.150;2023-02-12T16:58:15;22.70;;;6.03;;
44046;SDS011;29713;-33.888;151.150;2023-02-12T17:00:42;28.35;;;6.07;;
44046;SDS011;29713;-33.888;151.150;2023-02-12T17:03:13;22.63;;;5.93;;
44046;SDS011;29713;-33.888;151.150;2023-02-12T17:05:41;26.42;;;5.55;;
44046;SDS011;29713;-33.888;151.150;2023-02-12T17:08:14;30.00;;;5.35;;
44046;SDS011;29713;-33.888;151.150;2023-02-12T17:10:45;25.98;;;6.22;;
44046;SDS011;29713;-33.888;151.150;2023-02-12T17:13:15;22.27;;;5.93;;
44046;SDS011;29713;-33.888;151.150;2023-02-12T17:18:18;31.50;;;6.35;;
44046;SDS011;29713;-33.888;151.150;2023-02-12T17:21:04;22.50;;;6.32;;
44046;SDS011;29713;-33.888;151.150;2023-02-12T17:23:50;26.13;;;6.50;;
44046;SDS011;29713;-33.888;151.150;2023-02-12T17:26:23;36.55;;;6.68;;
44046;SDS011;29713;-33.888;151.150;2023-02-12T17:28:50;29.58;;;5.93;;
44046;SDS011;29713;-33.888;151.150;2023-02-12T17:31:17;27.77;;;6.82;;
44046;SDS011;29713;-33.888;151.150;2023-02-12T17:33:45;33.80;;;6.28;;
44046;SDS011;29713;-33.888;151.150;2023-02-12T17:36:13;29.75;;;7.03;;
44046;SDS011;29713;-33.888;151.150;2023-02-12T17:38:40;29.50;;;6.15;;
44046;SDS011;29713;-33.888;151.150;2023-02-12T17:41:08;31.42;;;6.15;;
44046;SDS011;29713;-33.888;151.150;2023-02-12T17:43:36;22.05;;;5.47;;
44046;SDS011;29713;-33.888;151.150;2023-02-12T17:46:10;37.63;;;6.70;;
44046;SDS011;29713;-33.888;151.150;2023-02-12T17:48:38;32.20;;;6.68;;
44046;SDS011;29713;-33.888;151.150;2023-02-12T17:51:06;31.80;;;5.70;;
44046;SDS011;29713;-33.888;151.150;2023-02-12T17:53:36;25.10;;;5.57;;
44046;SDS011;29713;-33.888;151.150;2023-02-12T17:56:04;38.00;;;7.07;;
44046;SDS011;29713;-33.888;151.150;2023-02-12T17:58:42;32.38;;;7.38;;
44046;SDS011;29713;-33.888;151.150;2023-02-12T18:01:11;34.05;;;7.18;;
44046;SDS011;29713;-33.888;151.150;2023-02-12T18:03:40;35.65;;;6.72;;
44046;SDS011;29713;-33.888;151.150;2023-02-12T18:06:08;32.20;;;6.00;;
44046;SDS011;29713;-33.888;151.150;2023-02-12T18:08:39;33.30;;;6.38;;
44046;SDS011;29713;-33.888;151.150;2023-02-12T18:11:07;33.58;;;6.45;;
44046;SDS011;29713;-33.888;151.150;2023-02-12T18:13:36;30.27;;;6.53;;
44046;SDS011;29713;-33.888;151.150;2023-02-12T18:16:07;32.22;;;6.82;;
44046;SDS011;29713;-33.888;151.150;2023-02-12T18:18:36;36.50;;;6.72;;
44046;SDS011;29713;-33.888;151.150;2023-02-12T18:21:06;38.88;;;7.15;;